Time;durP1;ratioP1;P1;durP2;ratioP2;P2;SDS_P1;SDS_P2;PMS_P1;PMS_P2;Temp;Humidity;BMP_temperature;BMP_pressure;BME280_temperature;BME280_humidity;BME280_pressure;Samples;Min_cycle;Max_cycle;Signal;HPM_P1;HPM_P2
2022/05/31 00:03:26;;;;;;;0.60;0.60;;;14.40;79.90;;;;;;10542860;28;20044;-60
2022/05/31 00:08:27;;;;;;;2.95;1.58;;;14.40;80.00;;;;;;10542695;28;20032;-58
2022/05/31 00:13:28;;;;;;;0.57;0.55;;;14.30;80.00;;;;;;10542194;28;20036;-57
2022/05/31 00:18:28;;;;;;;0.60;0.55;;;14.30;80.00;;;;;;10542362;28;20032;-61
2022/05/31 00:23:29;;;;;;;1.25;1.05;;;14.30;80.50;;;;;;10541067;28;20523;-60
2022/05/31 00:28:30;;;;;;;1.02;0.50;;;14.30;80.00;;;;;;10541924;28;20433;-60
2022/05/31 00:33:30;;;;;;;1.55;0.80;;;14.20;79.90;;;;;;10541497;28;20405;-58
2022/05/31 00:38:31;;;;;;;0.80;0.52;;;14.20;80.50;;;;;;10541187;28;20044;-62
2022/05/31 00:43:32;;;;;;;0.93;0.77;;;14.20;79.90;;;;;;10541599;28;20043;-58
2022/05/31 00:48:48;;;;;;;0.88;0.60;;;14.20;79.90;;;;;;10540969;28;20024;-58
2022/05/31 00:54:00;;;;;;;1.25;0.70;;;14.20;79.90;;;;;;10540631;28;20031;-62
2022/05/31 00:59:02;;;;;;;0.73;0.50;;;14.20;79.90;;;;;;10540374;28;20044;-57
2022/05/31 01:04:04;;;;;;;0.93;0.70;;;14.10;79.80;;;;;;10540169;28;20047;-57
2022/05/31 01:09:06;;;;;;;1.10;0.70;;;14.10;79.80;;;;;;10540112;28;20032;-58
2022/05/31 01:14:07;;;;;;;0.60;0.60;;;14.10;79.80;;;;;;10540041;28;20032;-58
2022/05/31 01:19:55;;;;;;;1.63;0.60;;;14.10;79.80;;;;;;10539830;28;20387;-62
2022/05/31 01:24:34;;;;;;;0.95;0.68;;;14.10;79.80;;;;;;10539373;28;20051;-58
2022/05/31 01:29:39;;;;;;;1.10;0.80;;;14.00;79.80;;;;;;10539376;28;20476;-59
2022/05/31 01:35:18;;;;;;;0.88;0.70;;;14.00;79.70;;;;;;10538013;28;20054;-60
2022/05/31 01:40:54;;;;;;;0.90;0.73;;;14.00;79.70;;;;;;10512068;28;20043;-58
2022/05/31 01:45:58;;;;;;;0.60;0.60;;;14.00;79.80;;;;;;10538499;28;20499;-57
2022/05/31 01:50:59;;;;;;;0.70;0.60;;;14.00;79.80;;;;;;10538442;28;20043;-59
2022/05/31 01:56:00;;;;;;;1.55;0.80;;;14.00;79.80;;;;;;10538518;28;20071;-58
2022/05/31 02:01:02;;;;;;;1.20;0.80;;;14.00;79.80;;;;;;10538209;28;20025;-61
2022/05/31 02:06:03;;;;;;;0.82;0.63;;;14.00;79.80;;;;;;10537945;28;20071;-61
2022/05/31 02:11:03;;;;;;;1.40;0.60;;;14.00;79.80;;;;;;10537695;28;20446;-57
2022/05/31 02:16:04;;;;;;;2.35;0.68;;;14.00;80.40;;;;;;10537560;28;20028;-58
2022/05/31 02:21:05;;;;;;;1.65;0.90;;;14.00;79.80;;;;;;10537504;28;20033;-58
2022/05/31 02:26:06;;;;;;;1.15;0.80;;;14.00;79.80;;;;;;10537193;28;20048;-57
2022/05/31 02:31:07;;;;;;;0.80;0.75;;;14.00;79.80;;;;;;10537568;28;20400;-58
2022/05/31 02:36:08;;;;;;;1.75;0.88;;;14.00;79.90;;;;;;10536656;28;20058;-59
2022/05/31 02:41:08;;;;;;;1.05;0.80;;;14.00;79.90;;;;;;10536574;28;20492;-57
2022/05/31 02:46:09;;;;;;;1.45;0.73;;;14.00;79.90;;;;;;10536349;28;20142;-57
2022/05/31 02:51:10;;;;;;;1.00;0.90;;;14.00;80.00;;;;;;10536446;28;20070;-59
2022/05/31 02:56:10;;;;;;;1.33;0.70;;;14.00;80.00;;;;;;10536303;28;20381;-59
2022/05/31 03:01:23;;;;;;;1.25;1.08;;;14.00;80.00;;;;;;10536252;28;20246;-62
2022/05/31 03:06:24;;;;;;;1.73;1.00;;;13.90;80.00;;;;;;10535949;28;20474;-57
2022/05/31 03:11:44;;;;;;;0.93;0.80;;;13.90;80.00;;;;;;10535839;28;20040;-58
2022/05/31 03:16:47;;;;;;;1.55;1.00;;;13.90;80.10;;;;;;10535975;28;20131;-57
2022/05/31 03:21:56;;;;;;;1.00;0.90;;;13.90;80.10;;;;;;10535832;28;20032;-58
2022/05/31 03:27:00;;;;;;;1.00;0.90;;;13.90;80.10;;;;;;10535496;28;20040;-58
2022/05/31 03:32:00;;;;;;;1.45;1.00;;;13.90;80.10;;;;;;10535600;28;20036;-60
2022/05/31 03:37:01;;;;;;;1.08;0.90;;;13.90;80.10;;;;;;10535649;28;20411;-58
2022/05/31 03:42:02;;;;;;;0.90;0.80;;;13.90;80.10;;;;;;10535630;28;20032;-57
2022/05/31 03:47:04;;;;;;;2.95;1.00;;;13.90;80.10;;;;;;10535438;28;20059;-59
2022/05/31 03:52:05;;;;;;;1.98;0.80;;;13.90;80.10;;;;;;10535235;28;20025;-57
2022/05/31 03:57:11;;;;;;;2.00;1.10;;;13.90;80.10;;;;;;10538974;28;20515;-57
2022/05/31 04:02:12;;;;;;;1.02;0.80;;;13.80;80.10;;;;;;10542816;28;20107;-61
2022/05/31 04:07:13;;;;;;;2.20;0.98;;;13.90;80.10;;;;;;10542664;28;20135;-57
2022/05/31 04:12:14;;;;;;;1.20;0.80;;;13.80;80.10;;;;;;10542246;28;20174;-61
2022/05/31 04:17:14;;;;;;;1.70;0.75;;;13.80;80.10;;;;;;10542929;28;20043;-57
2022/05/31 04:22:15;;;;;;;1.55;0.80;;;13.80;80.10;;;;;;10542229;28;20039;-62
2022/05/31 04:27:17;;;;;;;1.38;1.00;;;13.90;80.10;;;;;;10541694;28;20446;-61
2022/05/31 04:32:18;;;;;;;1.67;0.98;;;13.80;80.10;;;;;;10541641;28;20028;-61
2022/05/31 04:37:19;;;;;;;1.10;1.00;;;13.80;80.00;;;;;;10541226;28;20082;-58
2022/05/31 04:42:20;;;;;;;1.08;0.70;;;13.80;80.10;;;;;;10541556;28;20120;-62
2022/05/31 04:47:20;;;;;;;3.63;1.00;;;13.80;80.00;;;;;;10541004;28;20036;-61
2022/05/31 04:52:21;;;;;;;1.23;0.80;;;13.90;80.10;;;;;;10540725;28;20382;-58
2022/05/31 04:57:22;;;;;;;1.52;1.23;;;13.80;80.00;;;;;;10540695;28;20067;-58
2022/05/31 05:02:22;;;;;;;1.42;1.10;;;13.90;80.00;;;;;;10540453;28;20024;-59
2022/05/31 05:07:23;;;;;;;1.33;0.82;;;13.90;80.00;;;;;;10540012;28;20048;-59
2022/05/31 05:12:24;;;;;;;1.25;0.70;;;13.90;80.00;;;;;;10540183;28;20511;-58
2022/05/31 05:17:25;;;;;;;0.98;0.68;;;13.90;79.90;;;;;;10539777;28;20115;-57
2022/05/31 05:22:28;;;;;;;1.00;0.90;;;13.90;79.90;;;;;;10539587;28;20123;-61
2022/05/31 05:27:29;;;;;;;1.80;1.10;;;13.90;80.00;;;;;;10539404;28;20040;-62
2022/05/31 05:32:30;;;;;;;1.73;1.00;;;14.00;80.00;;;;;;10539834;28;20036;-57
2022/05/31 05:37:30;;;;;;;0.93;0.70;;;14.00;80.00;;;;;;10538828;28;20055;-61
2022/05/31 05:42:31;;;;;;;1.88;0.95;;;14.00;80.00;;;;;;10538708;28;20111;-57
2022/05/31 05:47:32;;;;;;;1.88;0.85;;;14.00;80.00;;;;;;10538723;28;20097;-62
2022/05/31 05:52:33;;;;;;;1.75;0.95;;;14.00;79.90;;;;;;10538450;28;20474;-57
2022/05/31 05:57:35;;;;;;;1.33;0.77;;;14.00;79.90;;;;;;10537678;28;20032;-59
2022/05/31 06:02:39;;;;;;;2.65;1.00;;;14.00;79.80;;;;;;10537844;28;20055;-60
2022/05/31 06:08:08;;;;;;;3.38;0.80;;;14.00;79.70;;;;;;10537761;28;20073;-58
2022/05/31 06:13:18;;;;;;;1.08;0.90;;;14.00;79.70;;;;;;10536369;28;20529;-58
2022/05/31 06:18:26;;;;;;;0.70;0.70;;;14.10;79.60;;;;;;10536655;28;20054;-58
2022/05/31 06:23:27;;;;;;;2.23;1.00;;;14.10;79.60;;;;;;10537067;28;20040;-63
2022/05/31 06:28:27;;;;;;;1.10;0.90;;;14.10;79.50;;;;;;10537110;28;20047;-57
2022/05/31 06:33:28;;;;;;;1.20;0.90;;;14.10;79.40;;;;;;10537252;28;20056;-57
2022/05/31 06:38:29;;;;;;;2.38;1.00;;;14.20;79.50;;;;;;10534496;28;20063;-57
2022/05/31 06:43:31;;;;;;;1.83;0.95;;;14.20;79.50;;;;;;10536696;28;20101;-61
2022/05/31 06:48:32;;;;;;;0.82;0.77;;;14.30;79.40;;;;;;10536393;28;20484;-61
2022/05/31 06:58:52;;;;;;;1.63;1.02;;;14.30;79.20;;;;;;10536339;28;20120;-57
2022/05/31 07:03:52;;;;;;;2.85;0.93;;;14.30;79.20;;;;;;10535978;28;20135;-59
2022/05/31 07:08:53;;;;;;;1.83;0.90;;;14.30;79.20;;;;;;10535750;28;20123;-58
2022/05/31 07:13:54;;;;;;;1.85;1.20;;;14.30;79.20;;;;;;10535548;28;20142;-59
2022/05/31 07:18:56;;;;;;;3.65;0.90;;;14.30;79.10;;;;;;10535757;28;20044;-59
2022/05/31 07:23:56;;;;;;;2.42;0.88;;;14.40;79.10;;;;;;10535408;28;20059;-59
2022/05/31 07:28:57;;;;;;;2.10;0.80;;;14.40;79.60;;;;;;10535536;28;20531;-58
2022/05/31 07:33:58;;;;;;;2.75;1.00;;;14.40;79.00;;;;;;10542549;28;20066;-59
2022/05/31 07:38:59;;;;;;;1.50;1.00;;;14.40;78.90;;;;;;10543292;28;20523;-58
2022/05/31 07:44:01;;;;;;;2.65;1.30;;;14.50;79.40;;;;;;10542754;28;20135;-57
2022/05/31 07:49:01;;;;;;;1.95;1.33;;;14.50;78.80;;;;;;10541402;28;20067;-59
2022/05/31 07:54:02;;;;;;;2.05;1.30;;;14.60;78.70;;;;;;10541615;28;20076;-60
2022/05/31 07:59:04;;;;;;;2.92;1.20;;;14.60;78.60;;;;;;10541503;28;20059;-57
2022/05/31 08:04:05;;;;;;;1.83;1.10;;;14.60;78.60;;;;;;10541244;28;20044;-57
2022/05/31 08:09:05;;;;;;;2.17;1.30;;;14.70;78.50;;;;;;10541377;28;20044;-57
2022/05/31 08:14:06;;;;;;;3.13;1.63;;;14.70;78.40;;;;;;10540891;28;20040;-57
2022/05/31 08:19:07;;;;;;;2.88;1.70;;;14.70;78.30;;;;;;10540736;28;20071;-60
2022/05/31 08:24:08;;;;;;;1.95;1.23;;;14.80;78.20;;;;;;10540208;28;20097;-61
2022/05/31 08:29:08;;;;;;;3.58;2.00;;;14.80;78.10;;;;;;10539752;28;20437;-57
2022/05/31 08:34:09;;;;;;;2.95;1.55;;;14.90;78.00;;;;;;10540091;28;20111;-63
2022/05/31 08:39:10;;;;;;;2.38;1.52;;;15.00;77.90;;;;;;10539564;28;20086;-57
2022/05/31 08:44:28;;;;;;;3.17;1.77;;;15.00;77.70;;;;;;10539325;28;20074;-58
2022/05/31 09:00:44;;;;;;;2.35;1.38;;;15.20;77.10;;;;;;10538833;28;20461;-59
2022/05/31 09:06:01;;;;;;;2.08;1.30;;;15.30;77.00;;;;;;10538850;28;20127;-57
2022/05/31 09:11:30;;;;;;;2.63;1.30;;;15.30;76.90;;;;;;10538512;28;20036;-57
2022/05/31 09:16:57;;;;;;;3.83;1.58;;;15.30;76.80;;;;;;10538434;28;20108;-60
2022/05/31 09:22:01;;;;;;;2.03;1.40;;;15.30;76.90;;;;;;10535072;28;20397;-57
2022/05/31 09:27:22;;;;;;;2.05;1.40;;;15.30;76.80;;;;;;10537963;28;20050;-57
2022/05/31 09:32:32;;;;;;;4.25;1.63;;;15.40;76.40;;;;;;10537748;28;20059;-57
2022/05/31 09:37:56;;;;;;;5.22;1.58;;;15.40;76.60;;;;;;10533038;28;20087;-62
2022/05/31 09:43:01;;;;;;;3.35;1.40;;;15.40;76.40;;;;;;10537343;28;20046;-57
2022/05/31 09:48:04;;;;;;;3.45;1.35;;;15.50;76.50;;;;;;10536757;28;20036;-58
2022/05/31 09:57:06;;;;;;;1.35;1.25;;;15.50;76.50;;;;;;10536214;28;20484;-59
2022/05/31 09:58:39;;;;;;;3.78;1.70;;;15.40;76.40;;;;;;10536670;28;20466;-57
2022/05/31 10:03:54;;;;;;;1.88;1.40;;;15.40;76.20;;;;;;10536382;28;20070;-62
2022/05/31 10:08:56;;;;;;;2.75;1.30;;;15.50;76.20;;;;;;10536350;28;20360;-57
2022/05/31 10:14:02;;;;;;;2.38;1.20;;;15.50;76.40;;;;;;10536004;28;20412;-58
2022/05/31 10:19:08;;;;;;;2.97;1.40;;;15.50;76.30;;;;;;10536029;28;20035;-61
2022/05/31 10:24:17;;;;;;;3.28;1.50;;;15.50;76.40;;;;;;10535838;28;20127;-57
2022/05/31 10:29:29;;;;;;;2.42;1.27;;;15.50;76.30;;;;;;10535457;28;20050;-58
2022/05/31 10:34:44;;;;;;;3.45;1.75;;;15.50;76.20;;;;;;10535432;28;20884;-57
2022/05/31 10:40:00;;;;;;;2.30;1.50;;;15.50;76.20;;;;;;10533050;28;20071;-57
2022/05/31 10:45:05;;;;;;;3.63;1.45;;;15.50;76.20;;;;;;10535099;28;20527;-59
2022/05/31 10:50:08;;;;;;;3.65;1.55;;;15.50;76.50;;;;;;10535076;28;20400;-60
2022/05/31 10:55:32;;;;;;;1.63;1.30;;;15.40;76.40;;;;;;10534907;28;20050;-57
2022/05/31 11:00:52;;;;;;;3.55;1.90;;;15.40;76.40;;;;;;10534766;28;20054;-57
2022/05/31 11:06:13;;;;;;;2.20;1.58;;;15.40;76.40;;;;;;10534170;28;20048;-57
2022/05/31 11:11:38;;;;;;;2.72;1.27;;;15.40;76.40;;;;;;10534467;28;20039;-59
2022/05/31 11:16:48;;;;;;;3.63;1.60;;;15.40;76.40;;;;;;10534502;28;20032;-63
2022/05/31 11:22:08;;;;;;;2.42;1.30;;;15.40;76.70;;;;;;10534062;28;20078;-63
2022/05/31 11:27:30;;;;;;;2.58;1.52;;;15.40;76.70;;;;;;10534193;28;20588;-57
2022/05/31 11:32:49;;;;;;;2.13;1.42;;;15.40;77.30;;;;;;10534050;28;20033;-58
2022/05/31 11:38:08;;;;;;;2.63;1.60;;;15.40;76.70;;;;;;10527438;28;20048;-58
2022/05/31 11:43:27;;;;;;;5.85;1.80;;;15.40;76.70;;;;;;10533796;28;20506;-59
2022/05/31 11:49:01;;;;;;;1.58;1.42;;;15.40;76.70;;;;;;10533947;28;20111;-57
2022/05/31 11:55:25;;;;;;;2.25;1.70;;;15.40;76.50;;;;;;10533485;28;20032;-60
2022/05/31 12:00:14;;;;;;;2.47;1.70;;;15.50;76.50;;;;;;10533399;28;20035;-61
2022/05/31 12:05:30;;;;;;;4.45;2.13;;;15.50;76.50;;;;;;10533298;28;20500;-57
2022/05/31 12:10:39;;;;;;;2.35;1.75;;;15.60;76.30;;;;;;10533516;28;20032;-58
2022/05/31 12:15:43;;;;;;;4.20;2.15;;;15.70;76.20;;;;;;10533213;28;20116;-62
2022/05/31 12:20:51;;;;;;;3.63;1.75;;;15.70;76.00;;;;;;10540504;28;20489;-60
2022/05/31 12:25:56;;;;;;;4.05;1.67;;;15.80;75.80;;;;;;10540162;28;20455;-57
2022/05/31 12:31:17;;;;;;;2.38;1.85;;;15.90;76.20;;;;;;10540245;28;20040;-58
2022/05/31 12:36:23;;;;;;;3.63;1.80;;;16.10;75.30;;;;;;10540039;28;20547;-58
2022/05/31 12:41:45;;;;;;;2.72;1.85;;;16.30;75.10;;;;;;10539802;28;20069;-58
2022/05/31 12:46:47;;;;;;;3.95;1.92;;;16.40;74.40;;;;;;10539778;28;20087;-58
2022/05/31 12:58:26;;;;;;;2.45;1.70;;;16.50;74.50;;;;;;10538981;28;20032;-57
2022/05/31 13:02:56;;;;;;;3.92;1.70;;;16.60;74.00;;;;;;10538624;28;20040;-57
2022/05/31 13:08:48;;;;;;;1.70;1.40;;;16.70;74.20;;;;;;10538667;28;20036;-57
2022/05/31 13:24:31;;;;;;;3.17;1.75;;;16.60;74.40;;;;;;10537977;28;20068;-57
2022/05/31 13:29:32;;;;;;;4.05;2.70;;;16.60;74.50;;;;;;10537790;28;20032;-61
2022/05/31 13:34:40;;;;;;;2.88;2.30;;;16.60;73.80;;;;;;10537590;28;20032;-62
2022/05/31 13:39:46;;;;;;;6.15;2.60;;;16.70;71.90;;;;;;10537361;28;20047;-61
2022/05/31 13:44:47;;;;;;;4.45;2.70;;;16.70;71.00;;;;;;10537086;28;20085;-62
2022/05/31 13:49:49;;;;;;;5.68;3.25;;;16.70;71.40;;;;;;10537096;28;20028;-59
2022/05/31 13:54:51;;;;;;;8.10;3.38;;;16.60;71.10;;;;;;10536810;28;20032;-59
2022/05/31 13:59:55;;;;;;;5.05;3.13;;;16.60;70.80;;;;;;10536701;28;20506;-62
2022/05/31 14:04:58;;;;;;;6.88;3.50;;;16.50;70.60;;;;;;10536417;28;20044;-58
2022/05/31 14:10:00;;;;;;;7.70;3.75;;;16.40;70.60;;;;;;10536046;28;20051;-63
2022/05/31 14:15:01;;;;;;;6.45;3.97;;;16.40;70.40;;;;;;10535860;28;20039;-62
2022/05/31 14:20:05;;;;;;;6.53;3.28;;;16.30;70.40;;;;;;10535620;28;20059;-63
2022/05/31 14:25:09;;;;;;;8.35;3.47;;;16.30;70.70;;;;;;10535655;28;20059;-58
2022/05/31 14:30:26;;;;;;;5.97;3.53;;;16.20;70.30;;;;;;10535509;28;20036;-60
2022/05/31 14:35:31;;;;;;;10.35;3.60;;;16.20;70.50;;;;;;10535179;28;20048;-59
2022/05/31 14:40:41;;;;;;;4.80;2.92;;;16.20;71.10;;;;;;10534874;28;20044;-58
2022/05/31 14:45:48;;;;;;;6.68;2.78;;;16.20;71.10;;;;;;10535144;28;20462;-57
2022/05/31 14:50:57;;;;;;;6.03;2.88;;;16.30;71.50;;;;;;10535227;28;20028;-60
2022/05/31 14:55:58;;;;;;;4.20;2.35;;;16.30;71.70;;;;;;10534919;28;20062;-60
2022/05/31 15:00:59;;;;;;;4.85;2.40;;;16.40;72.00;;;;;;10535012;28;20035;-59
2022/05/31 15:06:06;;;;;;;3.92;2.30;;;16.40;72.10;;;;;;10534675;28;20052;-60
2022/05/31 15:21:49;;;;;;;2.90;2.20;;;16.60;72.40;;;;;;10534628;28;20037;-60
2022/05/31 15:26:49;;;;;;;3.30;2.13;;;16.60;72.40;;;;;;10534427;28;20086;-60
2022/05/31 15:31:50;;;;;;;3.72;2.20;;;16.70;72.50;;;;;;10534191;28;20501;-58
2022/05/31 15:36:51;;;;;;;3.20;2.20;;;16.70;72.50;;;;;;10534187;28;20029;-57
2022/05/31 15:41:52;;;;;;;4.47;1.90;;;16.80;72.60;;;;;;10533851;28;20044;-57
2022/05/31 15:46:53;;;;;;;3.20;2.05;;;16.80;72.80;;;;;;10533823;28;20048;-61
2022/05/31 15:51:57;;;;;;;3.20;2.20;;;16.80;72.80;;;;;;10535902;28;20077;-58
2022/05/31 15:56:58;;;;;;;4.88;2.70;;;16.90;72.80;;;;;;10541681;28;20066;-59
2022/05/31 16:01:59;;;;;;;3.63;2.45;;;16.90;72.70;;;;;;10541651;28;20078;-58
2022/05/31 16:07:01;;;;;;;2.83;2.50;;;16.90;73.10;;;;;;10541284;28;20530;-59
2022/05/31 16:12:02;;;;;;;6.03;2.50;;;16.90;72.80;;;;;;10541339;28;20047;-58
2022/05/31 16:17:03;;;;;;;4.03;2.45;;;16.90;72.90;;;;;;10541126;28;20396;-57
2022/05/31 16:22:05;;;;;;;4.03;2.05;;;16.90;73.10;;;;;;10540670;28;20028;-58
2022/05/31 16:27:06;;;;;;;4.75;2.63;;;16.80;73.20;;;;;;10540740;28;20512;-58
2022/05/31 16:32:09;;;;;;;4.15;2.50;;;16.80;73.40;;;;;;10540248;28;20097;-57
2022/05/31 16:42:32;;;;;;;4.85;2.78;;;16.70;73.30;;;;;;10537620;28;20413;-58
2022/05/31 16:47:33;;;;;;;4.60;3.00;;;16.60;74.20;;;;;;10539560;28;20063;-57
2022/05/31 16:52:36;;;;;;;9.93;4.15;;;16.60;73.80;;;;;;10539925;28;20061;-57
2022/05/31 16:57:39;;;;;;;7.72;4.57;;;16.50;73.10;;;;;;10539102;28;20117;-59
2022/05/31 17:02:39;;;;;;;5.97;3.90;;;16.40;73.30;;;;;;10538700;28;20115;-58
2022/05/31 17:18:20;;;;;;;12.65;4.35;;;16.60;73.50;;;;;;10538523;28;20035;-59
2022/05/31 17:23:31;;;;;;;10.20;4.03;;;16.70;73.50;;;;;;10538612;28;20121;-59
2022/05/31 17:28:41;;;;;;;6.32;3.40;;;16.70;73.70;;;;;;10538107;28;20084;-57
2022/05/31 17:33:42;;;;;;;5.45;3.55;;;16.70;73.90;;;;;;10537887;28;20070;-55
2022/05/31 17:39:09;;;;;;;7.60;3.72;;;16.70;73.90;;;;;;10537062;28;20047;-60
2022/05/31 17:44:12;;;;;;;7.85;3.78;;;16.60;73.90;;;;;;10537041;28;20052;-57
2022/05/31 17:49:13;;;;;;;7.63;3.22;;;16.60;74.10;;;;;;10536508;28;20032;-56
2022/05/31 17:54:31;;;;;;;5.47;3.58;;;16.50;74.30;;;;;;10537233;28;20028;-59
2022/05/31 17:59:33;;;;;;;5.40;3.40;;;16.50;74.40;;;;;;10536777;28;20111;-59
2022/05/31 18:04:34;;;;;;;8.32;4.50;;;16.40;74.50;;;;;;10536757;28;20075;-59
2022/05/31 18:09:41;;;;;;;5.78;3.55;;;16.40;74.70;;;;;;10536695;28;20085;-60
2022/05/31 18:14:42;;;;;;;7.38;3.90;;;16.40;74.80;;;;;;10535462;28;20495;-58
2022/05/31 18:19:43;;;;;;;6.20;4.18;;;16.40;74.80;;;;;;10536097;28;20032;-59
2022/05/31 18:24:46;;;;;;;7.88;4.20;;;16.40;74.90;;;;;;10535852;28;20040;-59
2022/05/31 18:29:50;;;;;;;10.55;3.97;;;16.40;75.00;;;;;;10535843;28;20549;-59
2022/05/31 18:34:53;;;;;;;7.75;4.30;;;16.40;75.10;;;;;;10535588;28;20035;-59
2022/05/31 18:45:09;;;;;;;6.45;3.33;;;16.40;75.20;;;;;;10535164;28;20113;-57
2022/05/31 18:50:09;;;;;;;6.70;3.35;;;16.30;75.30;;;;;;10535135;28;20029;-56
2022/05/31 18:55:11;;;;;;;4.75;3.30;;;16.30;75.40;;;;;;10535137;28;20040;-58
2022/05/31 19:00:13;;;;;;;6.10;3.33;;;16.30;75.50;;;;;;10534734;28;20036;-58
2022/05/31 19:05:27;;;;;;;4.93;3.13;;;16.20;75.50;;;;;;10534611;28;20127;-57
2022/05/31 19:10:29;;;;;;;4.25;3.17;;;16.20;75.70;;;;;;10534573;28;20161;-56
2022/05/31 19:15:30;;;;;;;4.82;3.40;;;16.20;75.80;;;;;;10534481;28;20433;-57
2022/05/31 19:20:32;;;;;;;4.75;3.47;;;16.20;75.90;;;;;;10534499;28;20481;-56
2022/05/31 19:25:33;;;;;;;4.65;3.40;;;16.20;76.00;;;;;;10537120;28;20412;-59
2022/05/31 19:30:39;;;;;;;5.82;3.70;;;16.20;76.10;;;;;;10544489;28;20021;-57
2022/05/31 19:35:43;;;;;;;5.95;3.40;;;16.20;76.20;;;;;;10544581;28;20040;-57
2022/05/31 19:40:44;;;;;;;4.35;3.40;;;16.20;76.20;;;;;;10543847;28;20036;-57
2022/05/31 19:45:45;;;;;;;3.67;3.20;;;16.10;76.30;;;;;;10543801;28;20047;-57
2022/05/31 19:50:46;;;;;;;6.63;3.60;;;16.10;76.40;;;;;;10544626;28;20124;-56
2022/05/31 19:55:47;;;;;;;5.35;3.13;;;16.10;76.60;;;;;;10543452;28;20028;-56
2022/05/31 20:00:50;;;;;;;5.20;3.00;;;16.10;76.70;;;;;;10543156;28;20060;-55
2022/05/31 20:05:51;;;;;;;5.40;3.30;;;16.00;76.70;;;;;;10542800;28;20079;-58
2022/05/31 20:10:51;;;;;;;4.85;3.20;;;16.00;76.80;;;;;;10542674;28;20066;-57
2022/05/31 20:15:52;;;;;;;4.15;2.97;;;16.00;76.90;;;;;;10543011;28;20533;-56
2022/05/31 20:20:55;;;;;;;4.07;2.83;;;16.00;77.00;;;;;;10542323;28;20040;-56
2022/05/31 20:25:58;;;;;;;4.78;3.17;;;15.90;77.00;;;;;;10541858;28;20038;-63
2022/05/31 20:30:59;;;;;;;4.50;2.97;;;15.90;77.10;;;;;;10542141;28;20107;-55
2022/05/31 20:36:00;;;;;;;3.65;3.00;;;15.90;77.20;;;;;;10541708;28;20130;-58
2022/05/31 20:41:03;;;;;;;5.07;3.08;;;15.90;77.30;;;;;;10540352;28;20048;-56
2022/05/31 20:46:04;;;;;;;3.78;2.90;;;15.90;77.50;;;;;;10541302;28;20040;-57
2022/05/31 20:51:06;;;;;;;5.53;3.20;;;15.90;77.50;;;;;;10541197;28;20406;-57
2022/05/31 20:56:07;;;;;;;4.90;3.22;;;15.80;77.70;;;;;;10540929;28;20073;-58
2022/05/31 21:01:10;;;;;;;4.30;3.20;;;15.80;77.80;;;;;;10540906;28;20024;-58
2022/05/31 21:06:21;;;;;;;3.95;3.00;;;15.80;77.80;;;;;;10540950;28;20074;-57
2022/05/31 21:11:22;;;;;;;3.72;3.13;;;15.80;78.00;;;;;;10540251;28;20051;-57
2022/05/31 21:16:23;;;;;;;4.55;3.00;;;15.80;78.00;;;;;;10540408;28;20047;-57
2022/05/31 21:21:28;;;;;;;5.72;3.53;;;15.80;78.10;;;;;;10540117;28;20032;-58
2022/05/31 21:26:29;;;;;;;4.07;2.92;;;15.70;78.10;;;;;;10539789;28;20492;-57
2022/05/31 21:31:30;;;;;;;4.70;3.30;;;15.70;78.10;;;;;;10539565;28;20119;-60
2022/05/31 21:36:33;;;;;;;3.95;2.80;;;15.70;78.30;;;;;;10539385;28;20177;-58
2022/05/31 21:41:33;;;;;;;6.78;3.22;;;15.70;78.30;;;;;;10539048;28;20432;-59
2022/05/31 21:46:34;;;;;;;6.13;3.45;;;15.70;78.30;;;;;;10539066;28;20131;-59
2022/05/31 21:51:35;;;;;;;5.55;3.60;;;15.70;78.40;;;;;;10539010;28;20036;-57
2022/05/31 21:56:38;;;;;;;3.80;3.40;;;15.70;78.40;;;;;;10538917;28;20067;-57
2022/05/31 22:01:38;;;;;;;4.40;3.25;;;15.70;78.40;;;;;;10538464;28;20044;-60
2022/05/31 22:06:39;;;;;;;5.68;3.40;;;15.70;78.50;;;;;;10538145;28;20048;-57
2022/05/31 22:11:40;;;;;;;4.75;3.47;;;15.60;78.50;;;;;;10538113;28;20032;-59
2022/05/31 22:16:41;;;;;;;4.95;3.58;;;15.60;78.60;;;;;;10538238;28;20032;-58
2022/05/31 22:21:44;;;;;;;4.60;3.20;;;15.60;78.70;;;;;;10537626;28;20039;-59
2022/05/31 22:26:45;;;;;;;4.72;3.55;;;15.60;78.70;;;;;;10537405;28;20079;-60
2022/05/31 22:31:46;;;;;;;4.97;3.78;;;15.60;78.80;;;;;;10537326;28;20528;-60
2022/05/31 22:36:47;;;;;;;4.65;3.78;;;15.60;78.80;;;;;;10537461;28;20036;-58
2022/05/31 22:41:47;;;;;;;6.43;4.22;;;15.60;78.90;;;;;;10537046;28;20056;-58
2022/05/31 22:46:48;;;;;;;6.57;3.65;;;15.50;78.90;;;;;;10536845;28;20036;-57
2022/05/31 22:51:49;;;;;;;6.82;4.80;;;15.50;79.00;;;;;;10536732;28;20105;-57
2022/05/31 22:56:50;;;;;;;5.72;3.75;;;15.50;79.10;;;;;;10536610;28;20028;-58
2022/05/31 23:01:51;;;;;;;4.72;4.00;;;15.50;79.20;;;;;;10536293;28;20028;-57
2022/05/31 23:06:51;;;;;;;5.35;3.90;;;15.50;79.30;;;;;;10536239;28;20040;-59
2022/05/31 23:11:52;;;;;;;5.65;4.18;;;15.40;79.30;;;;;;10536129;28;20032;-58
2022/05/31 23:16:55;;;;;;;6.95;4.35;;;15.50;79.50;;;;;;10536126;28;20055;-57
2022/05/31 23:27:20;;;;;;;4.68;3.90;;;15.40;79.60;;;;;;10535964;28;20040;-59
2022/05/31 23:32:21;;;;;;;4.15;3.60;;;15.40;79.60;;;;;;10535895;28;20032;-58
2022/05/31 23:37:21;;;;;;;5.32;3.85;;;15.40;79.60;;;;;;10535816;28;20051;-59
2022/05/31 23:42:22;;;;;;;5.20;3.88;;;15.40;79.70;;;;;;10535624;28;20082;-57
2022/05/31 23:47:24;;;;;;;7.03;3.90;;;15.40;79.70;;;;;;10535437;28;20059;-57
2022/05/31 23:52:26;;;;;;;4.88;3.50;;;15.30;79.70;;;;;;10535400;28;20043;-57
2022/05/31 23:57:27;;;;;;;8.02;3.70;;;15.30;79.80;;;;;;10535332;28;20383;-57
